Terminal Aerodrome Forecast
Issued by NWS

Home | Current Version | Previous Version | Graphics & Text | Print | Product List | Glossary On
Versions: 1 2 3 4 5 6 7 8 9 10 11 12 13 14 15 16 17
000
FTUS43 KMPX 300400 AAB
TAFAXN
TAF AMD
KAXN 300411Z 3004/3024 11009KT 6SM BR SCT004 OVC012
      TEMPO 3009/3013 2SM BR BKN004
     FM301400 12014KT P6SM SCT008 OVC015
     FM301600 12016G25KT P6SM SCT015 SCT035
     FM302100 13015G23KT 6SM -SHRA BR SCT025 BKN050=

USA.gov is the U.S. government's official web portal to all federal, state and local government web resources and services.